Airfield :
LOGIN :

Register | Disclaimer

   EN    FR    IT 

 










Legend :    VFR   Marginal VFR   IFR   Intensive IFR   Very Intensive IFR
Visi :
Ceiling :
>= 8 km
>= 3000ft
5 to 8 km
1000 to 3000 ft
1500m to 5 km
500 to 1000 ft
800 to 1500m
200 to 500 ft
< 800m
< 200 ft
Symbols :   Thunderstorms  Fog  Heavy snow  Heavy precipitations  Wind > 20 kt
SIGMETs :     Misc.  Thunderstorms  Icing  Turbulence  Mountain Waves  Volcanic Ashes






- Airport Elevation : -15 ft
- IATA code : RTM


EHRD - Rotterdam Zestienhoven

CURRENT METAR :
  • 262055Z AUTO 21013KT 180V240 9999 FEW015CB 11/08 Q1000 TEMPO 6000 SHRA SCT022CB

EXPIRED METARs :
  • 262025Z AUTO 22014KT 9999 FEW015CB BKN016 BKN032 11/08 Q0999 TEMPO 6000 SHRA SCT022CB
  • 261955Z AUTO 22012KT 190V290 9999 -RA FEW015CB BKN017 OVC020 11/08 Q0999 TEMPO 6000 SHRA SCT022CB
  • 261925Z AUTO 21018KT 180V240 9999 FEW015CB OVC020 11/08 Q0999 TEMPO 6000 SHRA SCT022CB
  • 261855Z AUTO 21016KT 9999 FEW015CB BKN019 OVC023 11/08 Q0999 TEMPO 6000 SHRA SCT022CB

TAF TAF EHRD
Valid from the 26 at 18:00 until the 28 at 00:00 UTC


261716Z 2618/2724 20015G25KT 9999 SCT015 BKN025
PROB30
TEMPO 2618/2716 6000 SHRA RA SCT012 SCT018CB BKN020
BECMG 2620/2622 21011KT
PROB40 2706/2710 BKN008
BECMG 2714/2717 20015G25KT
BECMG 2716/2719 18018G30KT 7000 -RA RA BKN016
TEMPO 2717/2721 4000 RADZ BKN008
BECMG 2722/2724 24012KT 9999 NSW SCT025
PROB30
TEMPO 2722/2724 7000 -SHRA SCT022TCU



MET'MAP, your aeronautical weather chart ! - Copyright ORBIFLY December 2007 - Disclaimer

ORBIFLY MET'MAP TEAM :

Programming & Development : Alexandra Zaïnal
Concept & original design : Baudouin d'Aumeries
Assistance for programming : Marc-Olivier Méhu
Technical & hardware support : Manuel Goepfert

Contact : metmap@orbifly.com




SOURCES & CREDITS :

   NOAA